sensor_id;sensor_type;location;lat;lon;timestamp;temperature;humidity
7796;DHT22;3942;51.518;6.912;2022-09-13T00:08:04;19.70;1.00
7796;DHT22;3942;51.518;6.912;2022-09-13T00:13:07;19.70;1.00
7796;DHT22;3942;51.518;6.912;2022-09-13T00:23:13;19.70;1.00
7796;DHT22;3942;51.518;6.912;2022-09-13T00:28:15;19.70;1.00
7796;DHT22;3942;51.518;6.912;2022-09-13T00:33:18;19.70;1.00
7796;DHT22;3942;51.518;6.912;2022-09-13T00:38:20;19.70;1.00
7796;DHT22;3942;51.518;6.912;2022-09-13T00:48:40;19.70;99.90
7796;DHT22;3942;51.518;6.912;2022-09-13T00:53:45;19.60;1.00
7796;DHT22;3942;51.518;6.912;2022-09-13T00:58:50;19.60;1.00
7796;DHT22;3942;51.518;6.912;2022-09-13T01:03:54;19.60;1.00
7796;DHT22;3942;51.518;6.912;2022-09-13T01:14:04;19.50;1.00
7796;DHT22;3942;51.518;6.912;2022-09-13T01:19:07;19.40;1.00
7796;DHT22;3942;51.518;6.912;2022-09-13T01:30:07;19.40;1.00
7796;DHT22;3942;51.518;6.912;2022-09-13T01:35:15;19.40;1.00
7796;DHT22;3942;51.518;6.912;2022-09-13T01:40:33;19.30;68.90
7796;DHT22;3942;51.518;6.912;2022-09-13T01:45:46;19.30;82.50
7796;DHT22;3942;51.518;6.912;2022-09-13T01:50:56;19.30;99.90
7796;DHT22;3942;51.518;6.912;2022-09-13T01:56:03;19.30;99.90
7796;DHT22;3942;51.518;6.912;2022-09-13T02:01:12;19.30;99.90
7796;DHT22;3942;51.518;6.912;2022-09-13T02:06:20;19.20;99.90
7796;DHT22;3942;51.518;6.912;2022-09-13T02:16:29;19.30;99.90
7796;DHT22;3942;51.518;6.912;2022-09-13T02:21:36;19.30;99.90
7796;DHT22;3942;51.518;6.912;2022-09-13T02:26:40;19.20;99.90
7796;DHT22;3942;51.518;6.912;2022-09-13T02:31:50;19.20;99.90
7796;DHT22;3942;51.518;6.912;2022-09-13T02:36:56;19.20;99.90
7796;DHT22;3942;51.518;6.912;2022-09-13T02:42:05;19.20;99.90
7796;DHT22;3942;51.518;6.912;2022-09-13T02:47:21;19.20;99.90
7796;DHT22;3942;51.518;6.912;2022-09-13T02:52:35;19.20;99.90
7796;DHT22;3942;51.518;6.912;2022-09-13T02:57:48;19.10;99.90
7796;DHT22;3942;51.518;6.912;2022-09-13T03:02:55;19.10;99.90
7796;DHT22;3942;51.518;6.912;2022-09-13T03:07:58;19.20;99.90
7796;DHT22;3942;51.518;6.912;2022-09-13T03:13:10;19.20;99.90
7796;DHT22;3942;51.518;6.912;2022-09-13T03:18:30;19.20;99.90
7796;DHT22;3942;51.518;6.912;2022-09-13T03:23:45;19.20;99.90
7796;DHT22;3942;51.518;6.912;2022-09-13T03:28:56;19.10;99.90
7796;DHT22;3942;51.518;6.912;2022-09-13T03:34:08;19.10;1.00
7796;DHT22;3942;51.518;6.912;2022-09-13T03:39:19;19.10;99.90
7796;DHT22;3942;51.518;6.912;2022-09-13T03:44:24;19.10;1.00
7796;DHT22;3942;51.518;6.912;2022-09-13T03:49:30;19.10;99.90
7796;DHT22;3942;51.518;6.912;2022-09-13T03:59:41;19.00;1.00
7796;DHT22;3942;51.518;6.912;2022-09-13T04:04:45;18.90;99.90
7796;DHT22;3942;51.518;6.912;2022-09-13T04:14:50;18.90;99.90
7796;DHT22;3942;51.518;6.912;2022-09-13T04:19:53;18.90;1.00
7796;DHT22;3942;51.518;6.912;2022-09-13T04:24:55;18.90;1.00
7796;DHT22;3942;51.518;6.912;2022-09-13T04:29:57;18.80;1.00
7796;DHT22;3942;51.518;6.912;2022-09-13T04:35:00;18.80;99.90
7796;DHT22;3942;51.518;6.912;2022-09-13T04:40:02;18.90;99.90
7796;DHT22;3942;51.518;6.912;2022-09-13T04:45:05;18.90;99.90
7796;DHT22;3942;51.518;6.912;2022-09-13T04:50:09;19.00;99.90
7796;DHT22;3942;51.518;6.912;2022-09-13T04:55:10;18.90;99.90
7796;DHT22;3942;51.518;6.912;2022-09-13T05:00:13;18.80;99.90
7796;DHT22;3942;51.518;6.912;2022-09-13T05:05:16;18.70;99.90
7796;DHT22;3942;51.518;6.912;2022-09-13T05:10:18;18.70;1.00
7796;DHT22;3942;51.518;6.912;2022-09-13T05:15:20;18.70;1.00
7796;DHT22;3942;51.518;6.912;2022-09-13T05:20:23;18.70;1.00
7796;DHT22;3942;51.518;6.912;2022-09-13T05:25:25;18.70;99.90
7796;DHT22;3942;51.518;6.912;2022-09-13T05:30:27;18.70;41.80
7796;DHT22;3942;51.518;6.912;2022-09-13T05:35:30;18.70;99.90
7796;DHT22;3942;51.518;6.912;2022-09-13T05:40:32;18.70;99.90
7796;DHT22;3942;51.518;6.912;2022-09-13T05:45:34;18.80;99.90
7796;DHT22;3942;51.518;6.912;2022-09-13T05:50:37;18.80;99.90
7796;DHT22;3942;51.518;6.912;2022-09-13T05:55:39;18.80;99.90
7796;DHT22;3942;51.518;6.912;2022-09-13T06:00:41;18.80;99.90
7796;DHT22;3942;51.518;6.912;2022-09-13T06:05:44;18.80;99.90
7796;DHT22;3942;51.518;6.912;2022-09-13T06:10:53;18.80;99.90
7796;DHT22;3942;51.518;6.912;2022-09-13T06:15:56;18.80;99.90
7796;DHT22;3942;51.518;6.912;2022-09-13T06:21:02;18.80;1.00
7796;DHT22;3942;51.518;6.912;2022-09-13T06:26:05;18.90;1.00
7796;DHT22;3942;51.518;6.912;2022-09-13T06:31:09;18.90;1.00
7796;DHT22;3942;51.518;6.912;2022-09-13T06:36:14;18.90;1.00
7796;DHT22;3942;51.518;6.912;2022-09-13T06:41:19;19.00;99.90
7796;DHT22;3942;51.518;6.912;2022-09-13T06:46:23;19.10;96.90
7796;DHT22;3942;51.518;6.912;2022-09-13T06:51:26;19.10;99.90
7796;DHT22;3942;51.518;6.912;2022-09-13T06:56:30;19.10;1.00
7796;DHT22;3942;51.518;6.912;2022-09-13T07:01:34;19.20;1.00
7796;DHT22;3942;51.518;6.912;2022-09-13T07:06:39;19.30;99.90
7796;DHT22;3942;51.518;6.912;2022-09-13T07:11:41;19.50;99.90
7796;DHT22;3942;51.518;6.912;2022-09-13T07:16:43;19.60;90.70
7796;DHT22;3942;51.518;6.912;2022-09-13T07:21:48;19.70;1.00
7796;DHT22;3942;51.518;6.912;2022-09-13T07:26:50;20.00;1.00
7796;DHT22;3942;51.518;6.912;2022-09-13T07:31:53;20.10;97.00
7796;DHT22;3942;51.518;6.912;2022-09-13T07:36:57;20.20;98.10
7796;DHT22;3942;51.518;6.912;2022-09-13T07:41:59;20.10;1.00
7796;DHT22;3942;51.518;6.912;2022-09-13T07:47:01;20.10;1.00
7796;DHT22;3942;51.518;6.912;2022-09-13T07:52:04;20.30;1.00
7796;DHT22;3942;51.518;6.912;2022-09-13T07:57:05;20.30;1.00
7796;DHT22;3942;51.518;6.912;2022-09-13T08:02:08;20.40;1.00
7796;DHT22;3942;51.518;6.912;2022-09-13T08:07:11;20.50;25.30
7796;DHT22;3942;51.518;6.912;2022-09-13T08:12:13;20.80;46.00
7796;DHT22;3942;51.518;6.912;2022-09-13T08:17:15;20.80;99.90
7796;DHT22;3942;51.518;6.912;2022-09-13T08:22:18;20.90;1.00
7796;DHT22;3942;51.518;6.912;2022-09-13T08:27:20;21.00;99.90
7796;DHT22;3942;51.518;6.912;2022-09-13T08:32:22;21.10;99.90
7796;DHT22;3942;51.518;6.912;2022-09-13T08:37:25;21.80;1.00
7796;DHT22;3942;51.518;6.912;2022-09-13T08:42:38;22.30;99.90
7796;DHT22;3942;51.518;6.912;2022-09-13T08:47:49;23.00;1.00
7796;DHT22;3942;51.518;6.912;2022-09-13T08:53:02;23.50;99.90
7796;DHT22;3942;51.518;6.912;2022-09-13T08:58:25;23.60;99.90
7796;DHT22;3942;51.518;6.912;2022-09-13T09:03:38;23.90;54.50
7796;DHT22;3942;51.518;6.912;2022-09-13T09:08:45;24.20;99.90
7796;DHT22;3942;51.518;6.912;2022-09-13T09:13:52;25.00;99.90
7796;DHT22;3942;51.518;6.912;2022-09-13T09:19:01;25.80;99.90
7796;DHT22;3942;51.518;6.912;2022-09-13T09:24:09;26.20;1.00
7796;DHT22;3942;51.518;6.912;2022-09-13T09:29:17;26.40;1.00
7796;DHT22;3942;51.518;6.912;2022-09-13T09:34:21;26.40;1.00
7796;DHT22;3942;51.518;6.912;2022-09-13T09:39:29;27.00;1.00
7796;DHT22;3942;51.518;6.912;2022-09-13T09:44:39;26.70;1.00
7796;DHT22;3942;51.518;6.912;2022-09-13T09:49:44;27.00;1.00
7796;DHT22;3942;51.518;6.912;2022-09-13T09:55:16;27.20;1.00
7796;DHT22;3942;51.518;6.912;2022-09-13T10:00:22;28.20;1.00
7796;DHT22;3942;51.518;6.912;2022-09-13T10:05:25;28.50;1.00
7796;DHT22;3942;51.518;6.912;2022-09-13T10:10:36;28.50;1.00
7796;DHT22;3942;51.518;6.912;2022-09-13T10:15:52;28.30;1.00
7796;DHT22;3942;51.518;6.912;2022-09-13T10:21:03;27.30;1.00
7796;DHT22;3942;51.518;6.912;2022-09-13T10:26:09;27.40;1.00
7796;DHT22;3942;51.518;6.912;2022-09-13T10:31:12;27.40;1.00
7796;DHT22;3942;51.518;6.912;2022-09-13T10:36:18;27.70;1.00
7796;DHT22;3942;51.518;6.912;2022-09-13T10:41:23;27.70;1.00
7796;DHT22;3942;51.518;6.912;2022-09-13T10:46:27;27.40;99.90
7796;DHT22;3942;51.518;6.912;2022-09-13T10:51:33;27.20;99.90
7796;DHT22;3942;51.518;6.912;2022-09-13T10:56:37;26.80;99.90
7796;DHT22;3942;51.518;6.912;2022-09-13T11:01:45;26.50;99.90
7796;DHT22;3942;51.518;6.912;2022-09-13T11:06:58;26.10;99.90
7796;DHT22;3942;51.518;6.912;2022-09-13T11:12:10;25.80;99.90
7796;DHT22;3942;51.518;6.912;2022-09-13T11:17:22;25.70;99.90
7796;DHT22;3942;51.518;6.912;2022-09-13T11:22:51;25.60;1.00
7796;DHT22;3942;51.518;6.912;2022-09-13T11:28:06;25.50;1.00
7796;DHT22;3942;51.518;6.912;2022-09-13T11:33:27;25.60;99.90
7796;DHT22;3942;51.518;6.912;2022-09-13T11:38:34;25.60;1.00
7796;DHT22;3942;51.518;6.912;2022-09-13T11:44:07;25.50;1.00
7796;DHT22;3942;51.518;6.912;2022-09-13T11:54:54;25.50;1.00
7796;DHT22;3942;51.518;6.912;2022-09-13T12:00:04;25.40;1.00
7796;DHT22;3942;51.518;6.912;2022-09-13T12:05:10;25.30;1.00
7796;DHT22;3942;51.518;6.912;2022-09-13T12:10:18;25.40;1.00
7796;DHT22;3942;51.518;6.912;2022-09-13T12:15:31;25.30;1.00
7796;DHT22;3942;51.518;6.912;2022-09-13T12:20:38;25.20;1.00
7796;DHT22;3942;51.518;6.912;2022-09-13T12:25:46;25.50;1.00
7796;DHT22;3942;51.518;6.912;2022-09-13T12:30:55;25.50;1.00
7796;DHT22;3942;51.518;6.912;2022-09-13T12:36:12;25.40;1.00
7796;DHT22;3942;51.518;6.912;2022-09-13T12:41:34;25.30;99.90
7796;DHT22;3942;51.518;6.912;2022-09-13T12:47:10;25.20;77.30
7796;DHT22;3942;51.518;6.912;2022-09-13T12:52:25;25.20;99.90
7796;DHT22;3942;51.518;6.912;2022-09-13T12:57:37;25.30;99.90
7796;DHT22;3942;51.518;6.912;2022-09-13T13:02:49;25.10;99.90
7796;DHT22;3942;51.518;6.912;2022-09-13T13:07:52;25.10;99.90
7796;DHT22;3942;51.518;6.912;2022-09-13T13:18:23;25.10;99.90
7796;DHT22;3942;51.518;6.912;2022-09-13T13:23:27;25.10;99.90
7796;DHT22;3942;51.518;6.912;2022-09-13T13:28:50;25.20;98.80
7796;DHT22;3942;51.518;6.912;2022-09-13T13:33:56;25.30;11.70
7796;DHT22;3942;51.518;6.912;2022-09-13T13:38:59;25.20;1.00
7796;DHT22;3942;51.518;6.912;2022-09-13T13:55:01;25.00;13.60
7796;DHT22;3942;51.518;6.912;2022-09-13T14:00:10;25.10;59.20
7796;DHT22;3942;51.518;6.912;2022-09-13T14:05:19;25.20;43.40
7796;DHT22;3942;51.518;6.912;2022-09-13T14:10:26;25.10;96.40
7796;DHT22;3942;51.518;6.912;2022-09-13T14:15:41;24.90;99.90
7796;DHT22;3942;51.518;6.912;2022-09-13T14:20:59;25.00;99.90
7796;DHT22;3942;51.518;6.912;2022-09-13T14:26:01;24.90;99.90
7796;DHT22;3942;51.518;6.912;2022-09-13T14:31:03;24.90;99.90
7796;DHT22;3942;51.518;6.912;2022-09-13T14:36:15;24.80;99.90
7796;DHT22;3942;51.518;6.912;2022-09-13T14:41:19;24.80;99.90
7796;DHT22;3942;51.518;6.912;2022-09-13T14:46:23;24.80;99.90
7796;DHT22;3942;51.518;6.912;2022-09-13T14:51:30;24.70;1.00
7796;DHT22;3942;51.518;6.912;2022-09-13T14:56:34;24.70;1.00
7796;DHT22;3942;51.518;6.912;2022-09-13T15:01:37;24.90;1.00
7796;DHT22;3942;51.518;6.912;2022-09-13T15:06:40;24.80;1.00
7796;DHT22;3942;51.518;6.912;2022-09-13T15:11:55;24.70;1.00
7796;DHT22;3942;51.518;6.912;2022-09-13T15:17:05;24.80;1.00
7796;DHT22;3942;51.518;6.912;2022-09-13T15:27:30;24.70;1.00
7796;DHT22;3942;51.518;6.912;2022-09-13T15:32:39;24.70;1.00
7796;DHT22;3942;51.518;6.912;2022-09-13T15:37:41;24.70;1.00
7796;DHT22;3942;51.518;6.912;2022-09-13T15:42:48;24.60;1.00
7796;DHT22;3942;51.518;6.912;2022-09-13T15:47:50;24.70;99.90
7796;DHT22;3942;51.518;6.912;2022-09-13T15:52:53;24.50;99.90
7796;DHT22;3942;51.518;6.912;2022-09-13T15:57:56;24.50;99.90
7796;DHT22;3942;51.518;6.912;2022-09-13T16:02:58;24.50;99.90
7796;DHT22;3942;51.518;6.912;2022-09-13T16:08:00;24.40;99.90
7796;DHT22;3942;51.518;6.912;2022-09-13T16:13:04;24.40;99.90
7796;DHT22;3942;51.518;6.912;2022-09-13T16:23:08;24.40;1.00
7796;DHT22;3942;51.518;6.912;2022-09-13T16:28:14;24.30;1.00
7796;DHT22;3942;51.518;6.912;2022-09-13T16:43:23;24.20;1.00
7796;DHT22;3942;51.518;6.912;2022-09-13T16:48:25;24.20;1.00
7796;DHT22;3942;51.518;6.912;2022-09-13T16:53:30;24.20;1.00
7796;DHT22;3942;51.518;6.912;2022-09-13T16:58:36;24.00;1.00
7796;DHT22;3942;51.518;6.912;2022-09-13T17:08:44;24.10;1.00
7796;DHT22;3942;51.518;6.912;2022-09-13T17:13:48;24.10;1.00
7796;DHT22;3942;51.518;6.912;2022-09-13T17:18:50;24.00;1.00
7796;DHT22;3942;51.518;6.912;2022-09-13T17:23:52;24.00;1.00
7796;DHT22;3942;51.518;6.912;2022-09-13T17:28:56;24.00;1.00
7796;DHT22;3942;51.518;6.912;2022-09-13T17:33:58;24.00;1.00
7796;DHT22;3942;51.518;6.912;2022-09-13T17:44:04;23.90;1.00
7796;DHT22;3942;51.518;6.912;2022-09-13T17:49:06;23.90;1.00
7796;DHT22;3942;51.518;6.912;2022-09-13T17:54:10;23.80;1.00
7796;DHT22;3942;51.518;6.912;2022-09-13T17:59:15;23.70;99.90
7796;DHT22;3942;51.518;6.912;2022-09-13T18:04:18;23.70;99.90
7796;DHT22;3942;51.518;6.912;2022-09-13T18:09:20;23.70;99.90
7796;DHT22;3942;51.518;6.912;2022-09-13T18:14:24;23.70;99.90
7796;DHT22;3942;51.518;6.912;2022-09-13T18:19:27;23.60;99.90
7796;DHT22;3942;51.518;6.912;2022-09-13T18:29:32;23.40;1.00
7796;DHT22;3942;51.518;6.912;2022-09-13T18:34:34;23.40;99.90
7796;DHT22;3942;51.518;6.912;2022-09-13T18:39:36;23.20;99.90
7796;DHT22;3942;51.518;6.912;2022-09-13T18:44:39;23.10;1.00
7796;DHT22;3942;51.518;6.912;2022-09-13T18:49:41;23.00;20.90
7796;DHT22;3942;51.518;6.912;2022-09-13T18:59:47;22.80;47.40
7796;DHT22;3942;51.518;6.912;2022-09-13T19:04:48;22.90;99.90
7796;DHT22;3942;51.518;6.912;2022-09-13T19:09:50;22.60;38.60
7796;DHT22;3942;51.518;6.912;2022-09-13T19:14:54;22.40;81.50
7796;DHT22;3942;51.518;6.912;2022-09-13T19:19:56;22.10;99.90
7796;DHT22;3942;51.518;6.912;2022-09-13T19:24:58;22.00;1.00
7796;DHT22;3942;51.518;6.912;2022-09-13T19:30:01;21.90;99.90
7796;DHT22;3942;51.518;6.912;2022-09-13T19:35:04;21.80;1.00
7796;DHT22;3942;51.518;6.912;2022-09-13T19:40:07;21.60;1.00
7796;DHT22;3942;51.518;6.912;2022-09-13T19:45:11;21.60;1.00
7796;DHT22;3942;51.518;6.912;2022-09-13T19:55:15;21.50;99.90
7796;DHT22;3942;51.518;6.912;2022-09-13T20:00:18;21.30;99.90
7796;DHT22;3942;51.518;6.912;2022-09-13T20:05:20;21.20;99.90
7796;DHT22;3942;51.518;6.912;2022-09-13T20:10:22;21.00;99.90
7796;DHT22;3942;51.518;6.912;2022-09-13T20:15:26;21.00;99.90
7796;DHT22;3942;51.518;6.912;2022-09-13T20:20:33;21.00;99.90
7796;DHT22;3942;51.518;6.912;2022-09-13T20:30:41;20.90;99.90
7796;DHT22;3942;51.518;6.912;2022-09-13T20:35:43;20.80;99.90
7796;DHT22;3942;51.518;6.912;2022-09-13T20:40:45;20.70;99.90
7796;DHT22;3942;51.518;6.912;2022-09-13T20:45:55;20.60;99.90
7796;DHT22;3942;51.518;6.912;2022-09-13T20:50:58;20.50;99.90
7796;DHT22;3942;51.518;6.912;2022-09-13T20:56:04;20.50;1.00
7796;DHT22;3942;51.518;6.912;2022-09-13T21:01:10;20.40;1.00
7796;DHT22;3942;51.518;6.912;2022-09-13T21:06:13;20.30;1.00
7796;DHT22;3942;51.518;6.912;2022-09-13T21:11:17;20.30;1.00
7796;DHT22;3942;51.518;6.912;2022-09-13T21:16:22;20.40;1.00
7796;DHT22;3942;51.518;6.912;2022-09-13T21:21:26;20.40;1.00
7796;DHT22;3942;51.518;6.912;2022-09-13T21:26:30;20.30;1.00
7796;DHT22;3942;51.518;6.912;2022-09-13T21:36:35;20.10;1.00
7796;DHT22;3942;51.518;6.912;2022-09-13T21:41:38;20.10;1.00
7796;DHT22;3942;51.518;6.912;2022-09-13T21:46:41;20.00;1.00
7796;DHT22;3942;51.518;6.912;2022-09-13T21:51:45;20.00;1.00
7796;DHT22;3942;51.518;6.912;2022-09-13T21:56:49;20.00;1.00
7796;DHT22;3942;51.518;6.912;2022-09-13T22:01:53;19.90;1.00
7796;DHT22;3942;51.518;6.912;2022-09-13T22:06:55;19.90;1.00
7796;DHT22;3942;51.518;6.912;2022-09-13T22:11:56;19.80;1.00
7796;DHT22;3942;51.518;6.912;2022-09-13T22:17:01;19.80;1.00
7796;DHT22;3942;51.518;6.912;2022-09-13T22:22:03;19.80;1.00
7796;DHT22;3942;51.518;6.912;2022-09-13T22:27:05;19.70;1.00
7796;DHT22;3942;51.518;6.912;2022-09-13T22:32:09;19.60;1.00
7796;DHT22;3942;51.518;6.912;2022-09-13T22:37:11;19.70;1.00
7796;DHT22;3942;51.518;6.912;2022-09-13T22:42:12;19.60;4.90
7796;DHT22;3942;51.518;6.912;2022-09-13T22:47:16;19.60;1.00
7796;DHT22;3942;51.518;6.912;2022-09-13T22:52:18;19.50;50.10
7796;DHT22;3942;51.518;6.912;2022-09-13T22:57:20;19.50;99.90
7796;DHT22;3942;51.518;6.912;2022-09-13T23:02:23;19.40;99.90
7796;DHT22;3942;51.518;6.912;2022-09-13T23:07:24;19.50;99.90
7796;DHT22;3942;51.518;6.912;2022-09-13T23:12:28;19.30;99.90
7796;DHT22;3942;51.518;6.912;2022-09-13T23:17:31;19.20;1.00
7796;DHT22;3942;51.518;6.912;2022-09-13T23:22:33;19.10;99.90
7796;DHT22;3942;51.518;6.912;2022-09-13T23:27:35;19.10;99.90
7796;DHT22;3942;51.518;6.912;2022-09-13T23:32:38;19.00;99.90
7796;DHT22;3942;51.518;6.912;2022-09-13T23:42:42;18.90;99.90
7796;DHT22;3942;51.518;6.912;2022-09-13T23:47:45;18.90;1.00
7796;DHT22;3942;51.518;6.912;2022-09-13T23:52:47;18.80;99.90
7796;DHT22;3942;51.518;6.912;2022-09-13T23:57:49;18.80;1.00
